sensor_id;sensor_type;location;lat;lon;timestamp;P1;durP1;ratioP1;P2;durP2;ratioP2
21432;SDS011;18592;49.708;10.900;2024-01-07T00:01:24;6.43;;;4.60;;
21432;SDS011;18592;49.708;10.900;2024-01-07T00:03:26;5.32;;;4.65;;
21432;SDS011;18592;49.708;10.900;2024-01-07T00:05:28;6.88;;;4.90;;
21432;SDS011;18592;49.708;10.900;2024-01-07T00:07:32;6.40;;;4.65;;
21432;SDS011;18592;49.708;10.900;2024-01-07T00:09:33;4.80;;;4.30;;
21432;SDS011;18592;49.708;10.900;2024-01-07T00:11:35;5.68;;;4.28;;
21432;SDS011;18592;49.708;10.900;2024-01-07T00:13:36;6.75;;;4.45;;
21432;SDS011;18592;49.708;10.900;2024-01-07T00:15:38;6.18;;;4.63;;
21432;SDS011;18592;49.708;10.900;2024-01-07T00:17:39;5.97;;;4.78;;
21432;SDS011;18592;49.708;10.900;2024-01-07T00:19:41;7.38;;;4.70;;
21432;SDS011;18592;49.708;10.900;2024-01-07T00:21:43;5.78;;;4.43;;
21432;SDS011;18592;49.708;10.900;2024-01-07T00:23:45;8.05;;;4.72;;
21432;SDS011;18592;49.708;10.900;2024-01-07T00:25:47;5.25;;;4.40;;
21432;SDS011;18592;49.708;10.900;2024-01-07T00:27:48;5.35;;;4.47;;
21432;SDS011;18592;49.708;10.900;2024-01-07T00:29:52;5.75;;;4.50;;
21432;SDS011;18592;49.708;10.900;2024-01-07T00:31:54;5.82;;;4.38;;
21432;SDS011;18592;49.708;10.900;2024-01-07T00:33:55;6.93;;;4.45;;
21432;SDS011;18592;49.708;10.900;2024-01-07T00:35:57;6.93;;;4.82;;
21432;SDS011;18592;49.708;10.900;2024-01-07T00:37:58;5.63;;;4.50;;
21432;SDS011;18592;49.708;10.900;2024-01-07T00:40:00;5.65;;;4.85;;
21432;SDS011;18592;49.708;10.900;2024-01-07T00:42:02;5.93;;;5.03;;
21432;SDS011;18592;49.708;10.900;2024-01-07T00:44:04;6.72;;;5.38;;
21432;SDS011;18592;49.708;10.900;2024-01-07T00:46:05;6.53;;;5.30;;
21432;SDS011;18592;49.708;10.900;2024-01-07T00:48:07;7.00;;;5.28;;
21432;SDS011;18592;49.708;10.900;2024-01-07T00:50:08;7.07;;;5.22;;
21432;SDS011;18592;49.708;10.900;2024-01-07T00:52:10;8.52;;;5.90;;
21432;SDS011;18592;49.708;10.900;2024-01-07T00:54:12;7.18;;;5.90;;
21432;SDS011;18592;49.708;10.900;2024-01-07T00:56:13;6.90;;;5.65;;
21432;SDS011;18592;49.708;10.900;2024-01-07T00:58:15;6.10;;;5.07;;
21432;SDS011;18592;49.708;10.900;2024-01-07T01:00:17;7.35;;;5.18;;
21432;SDS011;18592;49.708;10.900;2024-01-07T01:02:19;8.32;;;5.32;;
21432;SDS011;18592;49.708;10.900;2024-01-07T01:04:21;5.03;;;4.35;;
21432;SDS011;18592;49.708;10.900;2024-01-07T01:06:23;6.38;;;4.80;;
21432;SDS011;18592;49.708;10.900;2024-01-07T01:08:24;6.13;;;4.60;;
21432;SDS011;18592;49.708;10.900;2024-01-07T01:10:26;6.57;;;5.28;;
21432;SDS011;18592;49.708;10.900;2024-01-07T01:12:27;5.60;;;4.57;;
21432;SDS011;18592;49.708;10.900;2024-01-07T01:14:29;5.65;;;4.88;;
21432;SDS011;18592;49.708;10.900;2024-01-07T01:16:31;7.68;;;4.90;;
21432;SDS011;18592;49.708;10.900;2024-01-07T01:18:32;7.75;;;5.22;;
21432;SDS011;18592;49.708;10.900;2024-01-07T01:20:34;6.47;;;4.95;;
21432;SDS011;18592;49.708;10.900;2024-01-07T01:22:36;5.30;;;4.47;;
21432;SDS011;18592;49.708;10.900;2024-01-07T01:24:38;5.50;;;4.63;;
21432;SDS011;18592;49.708;10.900;2024-01-07T01:26:39;6.30;;;4.97;;
21432;SDS011;18592;49.708;10.900;2024-01-07T01:28:41;6.32;;;4.50;;
21432;SDS011;18592;49.708;10.900;2024-01-07T01:30:42;6.53;;;4.78;;
21432;SDS011;18592;49.708;10.900;2024-01-07T01:32:44;5.40;;;4.78;;
21432;SDS011;18592;49.708;10.900;2024-01-07T01:34:46;6.70;;;5.13;;
21432;SDS011;18592;49.708;10.900;2024-01-07T01:36:47;5.97;;;4.45;;
21432;SDS011;18592;49.708;10.900;2024-01-07T01:38:49;5.35;;;4.65;;
21432;SDS011;18592;49.708;10.900;2024-01-07T01:40:53;7.45;;;5.05;;
21432;SDS011;18592;49.708;10.900;2024-01-07T01:42:55;6.50;;;4.82;;
21432;SDS011;18592;49.708;10.900;2024-01-07T01:44:56;5.25;;;4.53;;
21432;SDS011;18592;49.708;10.900;2024-01-07T01:47:03;4.90;;;4.38;;
21432;SDS011;18592;49.708;10.900;2024-01-07T01:49:07;4.78;;;4.20;;
21432;SDS011;18592;49.708;10.900;2024-01-07T01:51:09;5.88;;;4.45;;
21432;SDS011;18592;49.708;10.900;2024-01-07T01:53:11;5.45;;;4.38;;
21432;SDS011;18592;49.708;10.900;2024-01-07T01:55:13;5.80;;;4.25;;
21432;SDS011;18592;49.708;10.900;2024-01-07T01:57:15;4.35;;;3.90;;
21432;SDS011;18592;49.708;10.900;2024-01-07T01:59:20;5.13;;;4.30;;
21432;SDS011;18592;49.708;10.900;2024-01-07T02:01:22;6.30;;;4.25;;
21432;SDS011;18592;49.708;10.900;2024-01-07T02:03:25;4.82;;;3.70;;
21432;SDS011;18592;49.708;10.900;2024-01-07T02:05:28;4.53;;;3.67;;
21432;SDS011;18592;49.708;10.900;2024-01-07T02:07:30;5.47;;;3.85;;
21432;SDS011;18592;49.708;10.900;2024-01-07T02:09:32;5.30;;;4.20;;
21432;SDS011;18592;49.708;10.900;2024-01-07T02:11:33;4.70;;;3.65;;
21432;SDS011;18592;49.708;10.900;2024-01-07T02:13:35;5.25;;;3.92;;
21432;SDS011;18592;49.708;10.900;2024-01-07T02:15:36;5.15;;;4.10;;
21432;SDS011;18592;49.708;10.900;2024-01-07T02:17:38;5.00;;;4.28;;
21432;SDS011;18592;49.708;10.900;2024-01-07T02:19:40;6.03;;;4.50;;
21432;SDS011;18592;49.708;10.900;2024-01-07T02:21:41;7.05;;;4.68;;
21432;SDS011;18592;49.708;10.900;2024-01-07T02:23:43;6.32;;;4.65;;
21432;SDS011;18592;49.708;10.900;2024-01-07T02:25:44;5.53;;;4.55;;
21432;SDS011;18592;49.708;10.900;2024-01-07T02:27:46;6.10;;;4.13;;
21432;SDS011;18592;49.708;10.900;2024-01-07T02:29:47;5.70;;;4.20;;
21432;SDS011;18592;49.708;10.900;2024-01-07T02:31:49;5.75;;;4.28;;
21432;SDS011;18592;49.708;10.900;2024-01-07T02:33:51;6.60;;;4.45;;
21432;SDS011;18592;49.708;10.900;2024-01-07T02:35:52;6.10;;;4.38;;
21432;SDS011;18592;49.708;10.900;2024-01-07T02:37:54;6.65;;;4.57;;
21432;SDS011;18592;49.708;10.900;2024-01-07T02:39:56;6.28;;;4.55;;
21432;SDS011;18592;49.708;10.900;2024-01-07T02:42:02;7.43;;;4.93;;
21432;SDS011;18592;49.708;10.900;2024-01-07T02:44:05;7.32;;;4.80;;
21432;SDS011;18592;49.708;10.900;2024-01-07T02:46:08;6.13;;;4.72;;
21432;SDS011;18592;49.708;10.900;2024-01-07T02:48:11;5.43;;;4.10;;
21432;SDS011;18592;49.708;10.900;2024-01-07T02:50:12;6.93;;;4.75;;
21432;SDS011;18592;49.708;10.900;2024-01-07T02:52:14;6.38;;;4.13;;
21432;SDS011;18592;49.708;10.900;2024-01-07T02:54:16;5.78;;;3.90;;
21432;SDS011;18592;49.708;10.900;2024-01-07T02:56:17;5.80;;;4.38;;
21432;SDS011;18592;49.708;10.900;2024-01-07T02:58:19;6.10;;;4.30;;
21432;SDS011;18592;49.708;10.900;2024-01-07T03:00:20;6.57;;;4.68;;
21432;SDS011;18592;49.708;10.900;2024-01-07T03:02:22;5.95;;;4.38;;
21432;SDS011;18592;49.708;10.900;2024-01-07T03:04:24;6.90;;;4.60;;
21432;SDS011;18592;49.708;10.900;2024-01-07T03:06:28;5.70;;;3.90;;
21432;SDS011;18592;49.708;10.900;2024-01-07T03:08:31;7.28;;;4.57;;
21432;SDS011;18592;49.708;10.900;2024-01-07T03:10:33;5.78;;;4.18;;
21432;SDS011;18592;49.708;10.900;2024-01-07T03:12:34;5.60;;;4.03;;
21432;SDS011;18592;49.708;10.900;2024-01-07T03:14:36;4.88;;;3.90;;
21432;SDS011;18592;49.708;10.900;2024-01-07T03:16:37;6.53;;;4.30;;
21432;SDS011;18592;49.708;10.900;2024-01-07T03:18:39;5.60;;;4.03;;
21432;SDS011;18592;49.708;10.900;2024-01-07T03:20:40;5.28;;;4.10;;
21432;SDS011;18592;49.708;10.900;2024-01-07T03:22:43;5.38;;;4.13;;
21432;SDS011;18592;49.708;10.900;2024-01-07T03:24:44;5.97;;;4.82;;
21432;SDS011;18592;49.708;10.900;2024-01-07T03:26:46;6.20;;;4.30;;
21432;SDS011;18592;49.708;10.900;2024-01-07T03:28:47;6.28;;;4.45;;
21432;SDS011;18592;49.708;10.900;2024-01-07T03:30:49;5.95;;;4.13;;
21432;SDS011;18592;49.708;10.900;2024-01-07T03:32:51;6.30;;;4.30;;
21432;SDS011;18592;49.708;10.900;2024-01-07T03:34:52;6.93;;;4.75;;
21432;SDS011;18592;49.708;10.900;2024-01-07T03:36:54;5.68;;;3.85;;
21432;SDS011;18592;49.708;10.900;2024-01-07T03:38:56;6.47;;;4.50;;
21432;SDS011;18592;49.708;10.900;2024-01-07T03:40:57;5.38;;;3.97;;
21432;SDS011;18592;49.708;10.900;2024-01-07T03:42:59;7.45;;;4.43;;
21432;SDS011;18592;49.708;10.900;2024-01-07T03:45:00;5.32;;;4.03;;
21432;SDS011;18592;49.708;10.900;2024-01-07T03:47:02;4.40;;;3.50;;
21432;SDS011;18592;49.708;10.900;2024-01-07T03:49:03;4.40;;;3.47;;
21432;SDS011;18592;49.708;10.900;2024-01-07T03:51:05;5.82;;;3.63;;
21432;SDS011;18592;49.708;10.900;2024-01-07T03:53:06;4.60;;;3.33;;
21432;SDS011;18592;49.708;10.900;2024-01-07T03:55:08;6.47;;;4.18;;
21432;SDS011;18592;49.708;10.900;2024-01-07T03:57:10;5.28;;;3.83;;
21432;SDS011;18592;49.708;10.900;2024-01-07T03:59:11;5.28;;;3.70;;
21432;SDS011;18592;49.708;10.900;2024-01-07T04:01:16;5.10;;;3.42;;
21432;SDS011;18592;49.708;10.900;2024-01-07T04:03:19;5.95;;;3.70;;
21432;SDS011;18592;49.708;10.900;2024-01-07T04:05:21;5.57;;;3.65;;
21432;SDS011;18592;49.708;10.900;2024-01-07T04:07:22;5.00;;;3.80;;
21432;SDS011;18592;49.708;10.900;2024-01-07T04:09:24;4.50;;;3.63;;
21432;SDS011;18592;49.708;10.900;2024-01-07T04:11:25;4.80;;;3.90;;
21432;SDS011;18592;49.708;10.900;2024-01-07T04:13:27;5.95;;;4.03;;
21432;SDS011;18592;49.708;10.900;2024-01-07T04:15:29;5.30;;;4.03;;
21432;SDS011;18592;49.708;10.900;2024-01-07T04:17:30;4.45;;;3.20;;
21432;SDS011;18592;49.708;10.900;2024-01-07T04:19:32;4.55;;;3.40;;
21432;SDS011;18592;49.708;10.900;2024-01-07T04:21:34;4.90;;;3.20;;
21432;SDS011;18592;49.708;10.900;2024-01-07T04:23:38;5.75;;;3.60;;
21432;SDS011;18592;49.708;10.900;2024-01-07T04:25:41;5.22;;;3.63;;
21432;SDS011;18592;49.708;10.900;2024-01-07T04:27:45;3.47;;;3.00;;
21432;SDS011;18592;49.708;10.900;2024-01-07T04:29:47;5.00;;;3.33;;
21432;SDS011;18592;49.708;10.900;2024-01-07T04:31:48;5.18;;;3.53;;
21432;SDS011;18592;49.708;10.900;2024-01-07T04:33:50;3.92;;;2.80;;
21432;SDS011;18592;49.708;10.900;2024-01-07T04:35:52;4.90;;;3.20;;
21432;SDS011;18592;49.708;10.900;2024-01-07T04:37:53;4.30;;;3.17;;
21432;SDS011;18592;49.708;10.900;2024-01-07T04:39:55;5.22;;;3.40;;
21432;SDS011;18592;49.708;10.900;2024-01-07T04:41:56;4.00;;;3.05;;
21432;SDS011;18592;49.708;10.900;2024-01-07T04:43:58;4.78;;;3.30;;
21432;SDS011;18592;49.708;10.900;2024-01-07T04:45:59;3.60;;;2.92;;
21432;SDS011;18592;49.708;10.900;2024-01-07T04:48:01;4.90;;;3.15;;
21432;SDS011;18592;49.708;10.900;2024-01-07T04:50:03;5.68;;;3.40;;
21432;SDS011;18592;49.708;10.900;2024-01-07T04:52:05;3.90;;;2.88;;
21432;SDS011;18592;49.708;10.900;2024-01-07T04:54:06;4.35;;;3.03;;
21432;SDS011;18592;49.708;10.900;2024-01-07T04:56:08;4.15;;;3.00;;
21432;SDS011;18592;49.708;10.900;2024-01-07T04:58:09;5.20;;;3.03;;
21432;SDS011;18592;49.708;10.900;2024-01-07T05:00:11;4.32;;;3.20;;
21432;SDS011;18592;49.708;10.900;2024-01-07T05:02:13;5.18;;;3.20;;
21432;SDS011;18592;49.708;10.900;2024-01-07T05:04:15;4.57;;;3.13;;
21432;SDS011;18592;49.708;10.900;2024-01-07T05:06:16;4.28;;;3.33;;
21432;SDS011;18592;49.708;10.900;2024-01-07T05:08:18;3.55;;;2.95;;
21432;SDS011;18592;49.708;10.900;2024-01-07T05:10:19;5.15;;;3.35;;
21432;SDS011;18592;49.708;10.900;2024-01-07T05:12:21;4.47;;;3.22;;
21432;SDS011;18592;49.708;10.900;2024-01-07T05:14:22;4.88;;;3.33;;
21432;SDS011;18592;49.708;10.900;2024-01-07T05:16:24;5.47;;;3.65;;
21432;SDS011;18592;49.708;10.900;2024-01-07T05:18:26;5.35;;;3.78;;
21432;SDS011;18592;49.708;10.900;2024-01-07T05:20:27;4.45;;;3.50;;
21432;SDS011;18592;49.708;10.900;2024-01-07T05:22:29;5.13;;;3.30;;
21432;SDS011;18592;49.708;10.900;2024-01-07T05:24:30;5.57;;;3.70;;
21432;SDS011;18592;49.708;10.900;2024-01-07T05:26:38;5.07;;;3.67;;
21432;SDS011;18592;49.708;10.900;2024-01-07T05:28:40;6.03;;;3.83;;
21432;SDS011;18592;49.708;10.900;2024-01-07T05:30:43;6.90;;;3.85;;
21432;SDS011;18592;49.708;10.900;2024-01-07T05:32:46;5.63;;;4.37;;
21432;SDS011;18592;49.708;10.900;2024-01-07T05:34:48;6.57;;;4.05;;
21432;SDS011;18592;49.708;10.900;2024-01-07T05:36:51;6.00;;;4.22;;
21432;SDS011;18592;49.708;10.900;2024-01-07T05:38:53;5.07;;;4.00;;
21432;SDS011;18592;49.708;10.900;2024-01-07T05:40:55;6.23;;;4.37;;
21432;SDS011;18592;49.708;10.900;2024-01-07T05:42:56;5.57;;;4.07;;
21432;SDS011;18592;49.708;10.900;2024-01-07T05:44:58;6.07;;;4.13;;
21432;SDS011;18592;49.708;10.900;2024-01-07T05:47:00;6.40;;;4.32;;
21432;SDS011;18592;49.708;10.900;2024-01-07T05:49:01;6.32;;;4.25;;
21432;SDS011;18592;49.708;10.900;2024-01-07T05:51:03;5.82;;;4.43;;
21432;SDS011;18592;49.708;10.900;2024-01-07T05:53:04;6.95;;;4.85;;
21432;SDS011;18592;49.708;10.900;2024-01-07T05:55:06;6.53;;;4.43;;
21432;SDS011;18592;49.708;10.900;2024-01-07T05:57:08;7.93;;;4.68;;
21432;SDS011;18592;49.708;10.900;2024-01-07T05:59:09;7.35;;;4.68;;
21432;SDS011;18592;49.708;10.900;2024-01-07T06:01:11;8.95;;;5.43;;
21432;SDS011;18592;49.708;10.900;2024-01-07T06:03:20;8.05;;;5.03;;
21432;SDS011;18592;49.708;10.900;2024-01-07T06:05:21;6.93;;;5.00;;
21432;SDS011;18592;49.708;10.900;2024-01-07T06:07:23;6.63;;;4.80;;
21432;SDS011;18592;49.708;10.900;2024-01-07T06:09:25;7.47;;;5.25;;
21432;SDS011;18592;49.708;10.900;2024-01-07T06:11:26;6.53;;;4.78;;
21432;SDS011;18592;49.708;10.900;2024-01-07T06:13:28;7.13;;;5.20;;
21432;SDS011;18592;49.708;10.900;2024-01-07T06:15:29;7.28;;;4.95;;
21432;SDS011;18592;49.708;10.900;2024-01-07T06:17:31;7.47;;;5.13;;
21432;SDS011;18592;49.708;10.900;2024-01-07T06:19:32;7.90;;;4.97;;
21432;SDS011;18592;49.708;10.900;2024-01-07T06:21:34;7.80;;;5.53;;
21432;SDS011;18592;49.708;10.900;2024-01-07T06:23:38;7.90;;;4.82;;
21432;SDS011;18592;49.708;10.900;2024-01-07T06:25:40;7.97;;;5.47;;
21432;SDS011;18592;49.708;10.900;2024-01-07T06:27:41;6.20;;;4.97;;
21432;SDS011;18592;49.708;10.900;2024-01-07T06:29:43;7.93;;;5.07;;
21432;SDS011;18592;49.708;10.900;2024-01-07T06:31:45;6.88;;;5.07;;
21432;SDS011;18592;49.708;10.900;2024-01-07T06:33:47;8.57;;;5.50;;
21432;SDS011;18592;49.708;10.900;2024-01-07T06:35:49;7.22;;;5.47;;
21432;SDS011;18592;49.708;10.900;2024-01-07T06:37:50;8.20;;;5.38;;
21432;SDS011;18592;49.708;10.900;2024-01-07T06:39:52;7.15;;;4.97;;
21432;SDS011;18592;49.708;10.900;2024-01-07T06:41:54;6.80;;;5.05;;
21432;SDS011;18592;49.708;10.900;2024-01-07T06:43:56;6.55;;;5.00;;
21432;SDS011;18592;49.708;10.900;2024-01-07T06:45:58;6.47;;;4.95;;
21432;SDS011;18592;49.708;10.900;2024-01-07T06:47:59;6.32;;;5.10;;
21432;SDS011;18592;49.708;10.900;2024-01-07T06:50:02;7.18;;;5.40;;
21432;SDS011;18592;49.708;10.900;2024-01-07T06:52:04;6.88;;;5.03;;
21432;SDS011;18592;49.708;10.900;2024-01-07T06:54:06;8.70;;;5.85;;
21432;SDS011;18592;49.708;10.900;2024-01-07T06:56:08;7.75;;;5.53;;
21432;SDS011;18592;49.708;10.900;2024-01-07T06:58:10;7.40;;;5.13;;
21432;SDS011;18592;49.708;10.900;2024-01-07T07:00:11;7.97;;;5.45;;
21432;SDS011;18592;49.708;10.900;2024-01-07T07:02:13;7.68;;;5.82;;
21432;SDS011;18592;49.708;10.900;2024-01-07T07:04:15;6.72;;;5.15;;
21432;SDS011;18592;49.708;10.900;2024-01-07T07:06:17;6.88;;;5.30;;
21432;SDS011;18592;49.708;10.900;2024-01-07T07:08:18;6.65;;;4.93;;
21432;SDS011;18592;49.708;10.900;2024-01-07T07:10:20;7.38;;;5.38;;
21432;SDS011;18592;49.708;10.900;2024-01-07T07:12:21;6.13;;;5.13;;
21432;SDS011;18592;49.708;10.900;2024-01-07T07:14:25;7.40;;;5.00;;
21432;SDS011;18592;49.708;10.900;2024-01-07T07:16:29;6.60;;;5.35;;
21432;SDS011;18592;49.708;10.900;2024-01-07T07:18:31;7.13;;;5.30;;
21432;SDS011;18592;49.708;10.900;2024-01-07T07:20:32;7.38;;;5.55;;
21432;SDS011;18592;49.708;10.900;2024-01-07T07:22:34;6.72;;;5.28;;
21432;SDS011;18592;49.708;10.900;2024-01-07T07:24:38;6.72;;;4.97;;
21432;SDS011;18592;49.708;10.900;2024-01-07T07:26:41;6.28;;;4.68;;
21432;SDS011;18592;49.708;10.900;2024-01-07T07:28:46;7.78;;;5.15;;
21432;SDS011;18592;49.708;10.900;2024-01-07T07:30:48;7.68;;;5.38;;
21432;SDS011;18592;49.708;10.900;2024-01-07T07:32:52;7.55;;;5.03;;
21432;SDS011;18592;49.708;10.900;2024-01-07T07:34:54;6.03;;;4.93;;
21432;SDS011;18592;49.708;10.900;2024-01-07T07:36:57;5.97;;;5.07;;
21432;SDS011;18592;49.708;10.900;2024-01-07T07:38:58;7.68;;;5.35;;
21432;SDS011;18592;49.708;10.900;2024-01-07T07:41:00;5.28;;;4.50;;
21432;SDS011;18592;49.708;10.900;2024-01-07T07:43:02;7.00;;;4.78;;
21432;SDS011;18592;49.708;10.900;2024-01-07T07:45:04;6.15;;;4.93;;
21432;SDS011;18592;49.708;10.900;2024-01-07T07:47:06;6.38;;;5.13;;
21432;SDS011;18592;49.708;10.900;2024-01-07T07:49:10;6.20;;;4.82;;
21432;SDS011;18592;49.708;10.900;2024-01-07T07:51:12;7.20;;;5.53;;
21432;SDS011;18592;49.708;10.900;2024-01-07T07:53:14;7.03;;;5.43;;
21432;SDS011;18592;49.708;10.900;2024-01-07T07:55:15;7.35;;;5.13;;
21432;SDS011;18592;49.708;10.900;2024-01-07T07:57:17;8.00;;;5.53;;
21432;SDS011;18592;49.708;10.900;2024-01-07T07:59:20;6.80;;;5.40;;
21432;SDS011;18592;49.708;10.900;2024-01-07T08:01:22;8.55;;;6.10;;
21432;SDS011;18592;49.708;10.900;2024-01-07T08:03:23;8.85;;;6.18;;
21432;SDS011;18592;49.708;10.900;2024-01-07T08:05:25;7.18;;;5.97;;
21432;SDS011;18592;49.708;10.900;2024-01-07T08:07:31;7.82;;;5.70;;
21432;SDS011;18592;49.708;10.900;2024-01-07T08:09:33;6.18;;;4.80;;
21432;SDS011;18592;49.708;10.900;2024-01-07T08:11:37;6.38;;;5.32;;
21432;SDS011;18592;49.708;10.900;2024-01-07T08:13:41;7.13;;;5.60;;
21432;SDS011;18592;49.708;10.900;2024-01-07T08:15:42;6.93;;;5.10;;
21432;SDS011;18592;49.708;10.900;2024-01-07T08:17:44;6.38;;;5.13;;
21432;SDS011;18592;49.708;10.900;2024-01-07T08:19:45;6.72;;;5.57;;
21432;SDS011;18592;49.708;10.900;2024-01-07T08:21:50;7.93;;;5.40;;
21432;SDS011;18592;49.708;10.900;2024-01-07T08:23:51;5.72;;;4.80;;
21432;SDS011;18592;49.708;10.900;2024-01-07T08:25:54;6.07;;;5.03;;
21432;SDS011;18592;49.708;10.900;2024-01-07T08:27:57;7.10;;;5.40;;
21432;SDS011;18592;49.708;10.900;2024-01-07T08:29:59;7.60;;;5.70;;
21432;SDS011;18592;49.708;10.900;2024-01-07T08:32:03;8.00;;;6.38;;
21432;SDS011;18592;49.708;10.900;2024-01-07T08:34:06;7.47;;;6.00;;
21432;SDS011;18592;49.708;10.900;2024-01-07T08:36:07;7.55;;;5.70;;
21432;SDS011;18592;49.708;10.900;2024-01-07T08:38:09;6.43;;;5.00;;
21432;SDS011;18592;49.708;10.900;2024-01-07T08:40:11;7.35;;;5.30;;
21432;SDS011;18592;49.708;10.900;2024-01-07T08:42:15;7.07;;;5.32;;
21432;SDS011;18592;49.708;10.900;2024-01-07T08:44:17;6.50;;;5.15;;
21432;SDS011;18592;49.708;10.900;2024-01-07T08:46:21;8.27;;;5.97;;
21432;SDS011;18592;49.708;10.900;2024-01-07T08:48:23;7.20;;;5.07;;
21432;SDS011;18592;49.708;10.900;2024-01-07T08:50:27;8.30;;;5.95;;
21432;SDS011;18592;49.708;10.900;2024-01-07T08:52:31;9.02;;;5.82;;
21432;SDS011;18592;49.708;10.900;2024-01-07T08:54:33;7.45;;;6.22;;
21432;SDS011;18592;49.708;10.900;2024-01-07T08:56:34;7.95;;;6.80;;
21432;SDS011;18592;49.708;10.900;2024-01-07T08:58:36;10.48;;;6.55;;
21432;SDS011;18592;49.708;10.900;2024-01-07T09:00:38;9.23;;;7.00;;
21432;SDS011;18592;49.708;10.900;2024-01-07T09:02:42;9.13;;;6.78;;
21432;SDS011;18592;49.708;10.900;2024-01-07T09:04:44;8.38;;;6.85;;
21432;SDS011;18592;49.708;10.900;2024-01-07T09:06:46;9.57;;;6.82;;
21432;SDS011;18592;49.708;10.900;2024-01-07T09:08:47;8.90;;;6.75;;
21432;SDS011;18592;49.708;10.900;2024-01-07T09:10:49;12.15;;;7.95;;
21432;SDS011;18592;49.708;10.900;2024-01-07T09:12:51;9.93;;;6.30;;
21432;SDS011;18592;49.708;10.900;2024-01-07T09:14:54;10.48;;;7.47;;
21432;SDS011;18592;49.708;10.900;2024-01-07T09:16:58;11.50;;;7.18;;
21432;SDS011;18592;49.708;10.900;2024-01-07T09:18:59;9.07;;;7.40;;
21432;SDS011;18592;49.708;10.900;2024-01-07T09:21:02;10.15;;;7.13;;
21432;SDS011;18592;49.708;10.900;2024-01-07T09:23:04;9.55;;;7.20;;
21432;SDS011;18592;49.708;10.900;2024-01-07T09:25:08;10.43;;;7.38;;
21432;SDS011;18592;49.708;10.900;2024-01-07T09:27:12;10.52;;;7.75;;
21432;SDS011;18592;49.708;10.900;2024-01-07T09:29:14;10.15;;;7.15;;
21432;SDS011;18592;49.708;10.900;2024-01-07T09:31:16;11.00;;;7.40;;
21432;SDS011;18592;49.708;10.900;2024-01-07T09:33:17;12.85;;;7.90;;
21432;SDS011;18592;49.708;10.900;2024-01-07T09:35:19;11.38;;;7.50;;
21432;SDS011;18592;49.708;10.900;2024-01-07T09:37:24;12.57;;;7.30;;
21432;SDS011;18592;49.708;10.900;2024-01-07T09:39:27;10.85;;;7.40;;
21432;SDS011;18592;49.708;10.900;2024-01-07T09:41:29;10.18;;;7.25;;
21432;SDS011;18592;49.708;10.900;2024-01-07T09:43:35;10.07;;;7.55;;
21432;SDS011;18592;49.708;10.900;2024-01-07T09:45:38;10.80;;;7.53;;
21432;SDS011;18592;49.708;10.900;2024-01-07T09:47:42;11.52;;;7.63;;
21432;SDS011;18592;49.708;10.900;2024-01-07T09:49:46;11.85;;;7.53;;
21432;SDS011;18592;49.708;10.900;2024-01-07T09:51:51;10.70;;;7.50;;
21432;SDS011;18592;49.708;10.900;2024-01-07T09:54:00;13.50;;;8.37;;
21432;SDS011;18592;49.708;10.900;2024-01-07T09:56:12;10.65;;;7.10;;
21432;SDS011;18592;49.708;10.900;2024-01-07T09:58:21;13.07;;;7.88;;
21432;SDS011;18592;49.708;10.900;2024-01-07T10:00:24;12.40;;;8.27;;
21432;SDS011;18592;49.708;10.900;2024-01-07T10:02:28;11.90;;;7.40;;
21432;SDS011;18592;49.708;10.900;2024-01-07T10:04:30;12.23;;;7.55;;
21432;SDS011;18592;49.708;10.900;2024-01-07T10:06:34;12.07;;;8.30;;
21432;SDS011;18592;49.708;10.900;2024-01-07T10:08:36;11.23;;;8.10;;
21432;SDS011;18592;49.708;10.900;2024-01-07T10:10:41;10.43;;;7.32;;
21432;SDS011;18592;49.708;10.900;2024-01-07T10:12:46;9.30;;;7.13;;
21432;SDS011;18592;49.708;10.900;2024-01-07T10:14:48;9.95;;;7.20;;
21432;SDS011;18592;49.708;10.900;2024-01-07T10:16:50;10.30;;;6.93;;
21432;SDS011;18592;49.708;10.900;2024-01-07T10:18:51;10.00;;;7.60;;
21432;SDS011;18592;49.708;10.900;2024-01-07T10:20:53;11.30;;;7.20;;
21432;SDS011;18592;49.708;10.900;2024-01-07T10:22:55;11.98;;;7.22;;
21432;SDS011;18592;49.708;10.900;2024-01-07T10:24:57;9.37;;;7.03;;
21432;SDS011;18592;49.708;10.900;2024-01-07T10:26:59;13.80;;;7.97;;
21432;SDS011;18592;49.708;10.900;2024-01-07T10:29:01;11.90;;;7.43;;
21432;SDS011;18592;49.708;10.900;2024-01-07T10:31:03;10.87;;;7.87;;
21432;SDS011;18592;49.708;10.900;2024-01-07T10:33:04;11.30;;;7.93;;
21432;SDS011;18592;49.708;10.900;2024-01-07T10:35:07;10.43;;;7.80;;
21432;SDS011;18592;49.708;10.900;2024-01-07T10:37:16;10.63;;;7.63;;
21432;SDS011;18592;49.708;10.900;2024-01-07T10:39:19;11.57;;;7.70;;
21432;SDS011;18592;49.708;10.900;2024-01-07T10:41:21;10.87;;;7.47;;
21432;SDS011;18592;49.708;10.900;2024-01-07T10:43:22;10.83;;;7.80;;
21432;SDS011;18592;49.708;10.900;2024-01-07T10:45:24;13.23;;;8.33;;
21432;SDS011;18592;49.708;10.900;2024-01-07T10:47:27;13.75;;;8.90;;
21432;SDS011;18592;49.708;10.900;2024-01-07T10:49:34;11.87;;;8.00;;
21432;SDS011;18592;49.708;10.900;2024-01-07T10:51:38;13.10;;;8.77;;
21432;SDS011;18592;49.708;10.900;2024-01-07T10:53:42;10.97;;;7.77;;
21432;SDS011;18592;49.708;10.900;2024-01-07T10:55:52;12.90;;;8.17;;
21432;SDS011;18592;49.708;10.900;2024-01-07T10:58:01;11.32;;;8.60;;
21432;SDS011;18592;49.708;10.900;2024-01-07T11:00:05;11.00;;;7.20;;
21432;SDS011;18592;49.708;10.900;2024-01-07T11:02:08;11.53;;;7.30;;
21432;SDS011;18592;49.708;10.900;2024-01-07T11:04:23;10.53;;;7.20;;
21432;SDS011;18592;49.708;10.900;2024-01-07T11:06:38;9.53;;;6.63;;
21432;SDS011;18592;49.708;10.900;2024-01-07T11:09:03;11.30;;;6.87;;
21432;SDS011;18592;49.708;10.900;2024-01-07T11:11:18;10.17;;;7.30;;
21432;SDS011;18592;49.708;10.900;2024-01-07T11:13:34;9.80;;;6.67;;
21432;SDS011;18592;49.708;10.900;2024-01-07T11:17:51;11.00;;;7.07;;
21432;SDS011;18592;49.708;10.900;2024-01-07T11:19:53;11.70;;;7.00;;
21432;SDS011;18592;49.708;10.900;2024-01-07T11:24:38;8.57;;;6.37;;
21432;SDS011;18592;49.708;10.900;2024-01-07T11:26:39;11.33;;;6.67;;
21432;SDS011;18592;49.708;10.900;2024-01-07T11:28:42;9.40;;;6.03;;
21432;SDS011;18592;49.708;10.900;2024-01-07T11:30:59;10.13;;;6.47;;
21432;SDS011;18592;49.708;10.900;2024-01-07T11:33:01;11.43;;;6.73;;
21432;SDS011;18592;49.708;10.900;2024-01-07T11:35:05;8.83;;;6.20;;
21432;SDS011;18592;49.708;10.900;2024-01-07T11:37:07;11.00;;;6.70;;
21432;SDS011;18592;49.708;10.900;2024-01-07T11:39:12;13.73;;;8.20;;
21432;SDS011;18592;49.708;10.900;2024-01-07T11:41:14;12.53;;;7.80;;
21432;SDS011;18592;49.708;10.900;2024-01-07T11:43:18;13.67;;;8.23;;
21432;SDS011;18592;49.708;10.900;2024-01-07T11:45:20;15.17;;;8.10;;
21432;SDS011;18592;49.708;10.900;2024-01-07T11:47:23;13.27;;;7.97;;
21432;SDS011;18592;49.708;10.900;2024-01-07T11:49:27;17.53;;;8.30;;
21432;SDS011;18592;49.708;10.900;2024-01-07T11:51:29;13.80;;;8.23;;
21432;SDS011;18592;49.708;10.900;2024-01-07T11:53:32;14.43;;;7.77;;
21432;SDS011;18592;49.708;10.900;2024-01-07T11:55:35;15.20;;;8.23;;
21432;SDS011;18592;49.708;10.900;2024-01-07T11:57:37;16.43;;;9.40;;
21432;SDS011;18592;49.708;10.900;2024-01-07T11:59:39;16.20;;;9.07;;
21432;SDS011;18592;49.708;10.900;2024-01-07T12:01:45;17.53;;;9.07;;
21432;SDS011;18592;49.708;10.900;2024-01-07T12:03:47;15.37;;;8.73;;
21432;SDS011;18592;49.708;10.900;2024-01-07T12:05:50;13.87;;;8.27;;
21432;SDS011;18592;49.708;10.900;2024-01-07T12:07:51;17.47;;;8.80;;
21432;SDS011;18592;49.708;10.900;2024-01-07T12:09:56;20.47;;;9.07;;